Time;durP1;ratioP1;P1;durP2;ratioP2;P2;SDS_P1;SDS_P2;PMS_P1;PMS_P2;Temp;Humidity;BMP_temperature;BMP_pressure;BME280_temperature;BME280_humidity;BME280_pressure;Samples;Min_cycle;Max_cycle;Signal;HPM_P1;HPM_P2
2023/08/23 00:01:30;;;;;;;;;;;;;;;22.65;59.16;101432.13;5025959;28;4045;-70
2023/08/23 00:03:57;;;;;;;;;;;;;;;22.63;59.63;101429.16;5024136;28;4025;-70
2023/08/23 00:06:23;;;;;;;;;;;;;;;22.63;59.27;101429.16;5025507;28;4167;-70
2023/08/23 00:08:50;;;;;;;;;;;;;;;22.61;59.30;101426.94;5025248;28;4746;-70
2023/08/23 00:11:16;;;;;;;;;;;;;;;22.61;59.27;101426.16;5022296;28;4135;-69
2023/08/23 00:13:43;;;;;;;;;;;;;;;22.59;59.12;101432.59;5024025;28;4012;-70
2023/08/23 00:16:09;;;;;;;;;;;;;;;22.58;59.23;101434.72;5023931;28;4304;-70
2023/08/23 00:18:35;;;;;;;;;;;;;;;22.57;59.26;101427.47;5025395;28;4476;-70
2023/08/23 00:21:02;;;;;;;;;;;;;;;22.58;59.09;101434.72;5022922;28;4210;-70
2023/08/23 00:23:28;;;;;;;;;;;;;;;22.58;59.34;101434.72;5026158;28;4199;-70
2023/08/23 00:25:55;;;;;;;;;;;;;;;22.58;59.21;101434.72;5024690;28;4199;-70
2023/08/23 00:28:21;;;;;;;;;;;;;;;22.55;59.07;101430.25;5029332;28;4178;-70
2023/08/23 00:30:51;;;;;;;;;;;;;;;22.56;59.08;101431.00;5023983;28;4239;-70
2023/08/23 00:33:17;;;;;;;;;;;;;;;22.54;59.14;101423.00;5027939;28;4103;-70
2023/08/23 00:35:44;;;;;;;;;;;;;;;22.54;59.06;101428.03;5026562;28;4192;-70
2023/08/23 00:38:10;;;;;;;;;;;;;;;22.53;59.04;101435.94;5029381;28;4167;-70
2023/08/23 00:40:37;;;;;;;;;;;;;;;22.52;58.88;101431.56;5023420;28;4146;-70
2023/08/23 00:43:06;;;;;;;;;;;;;;;22.51;58.88;101424.28;5024886;28;4147;-70
2023/08/23 00:45:34;;;;;;;;;;;;;;;22.51;58.94;101430.06;5025971;28;4171;-70
2023/08/23 00:48:00;;;;;;;;;;;;;;;22.51;58.75;101432.97;5026374;28;4016;-69
2023/08/23 00:50:27;;;;;;;;;;;;;;;22.50;58.76;101431.47;5024633;28;4463;-69
2023/08/23 00:52:53;;;;;;;;;;;;;;;22.51;58.79;101435.84;5008544;28;4233;-70
2023/08/23 00:55:20;;;;;;;;;;;;;;;22.50;58.75;101440.13;5023229;28;4192;-70
2023/08/23 00:57:46;;;;;;;;;;;;;;;22.51;58.56;101443.75;5043717;28;4099;-69
2023/08/23 01:00:13;;;;;;;;;;;;;;;22.48;58.75;101440.03;5023223;28;4148;-70
2023/08/23 01:02:41;;;;;;;;;;;;;;;22.49;58.60;101438.63;5048679;28;4338;-70
2023/08/23 01:05:07;;;;;;;;;;;;;;;22.47;58.43;101444.34;5026425;28;4001;-69
2023/08/23 01:07:37;;;;;;;;;;;;;;;22.47;58.25;101450.09;5041470;28;4171;-69
2023/08/23 01:10:03;;;;;;;;;;;;;;;22.46;58.11;101439.94;5031743;28;4183;-69
2023/08/23 01:12:37;;;;;;;;;;;;;;;22.46;58.43;101450.75;5027964;28;3991;-70
2023/08/23 01:15:07;;;;;;;;;;;;;;;22.45;58.37;101443.47;5026784;28;4045;-69
2023/08/23 01:17:34;;;;;;;;;;;;;;;22.44;58.00;101436.94;5026868;28;4199;-69
2023/08/23 01:20:01;;;;;;;;;;;;;;;22.45;57.98;101441.34;5026263;28;4190;-69
2023/08/23 01:22:28;;;;;;;;;;;;;;;22.44;58.13;101430.44;5026722;28;4189;-70
2023/08/23 01:24:54;;;;;;;;;;;;;;;22.41;57.92;101435.38;5040990;28;4059;-68
2023/08/23 01:27:21;;;;;;;;;;;;;;;22.42;58.13;101427.47;5042010;28;4378;-69
2023/08/23 01:29:47;;;;;;;;;;;;;;;22.41;58.19;101429.59;5024264;28;4242;-70
2023/08/23 01:32:16;;;;;;;;;;;;;;;22.40;58.04;101424.47;5026399;28;4141;-69
2023/08/23 01:34:44;;;;;;;;;;;;;;;22.41;57.65;101431.75;5026632;28;4388;-69
2023/08/23 01:37:10;;;;;;;;;;;;;;;22.37;57.98;101426.53;5030202;28;4008;-69
2023/08/23 01:39:36;;;;;;;;;;;;;;;22.37;57.53;101423.63;5028209;28;4013;-70
2023/08/23 01:42:03;;;;;;;;;;;;;;;22.37;57.63;101423.63;5029673;28;4154;-69
2023/08/23 01:44:29;;;;;;;;;;;;;;;22.37;57.65;101426.53;5028012;28;4191;-69
2023/08/23 01:46:56;;;;;;;;;;;;;;;22.37;57.51;101429.41;5026665;28;4180;-69
2023/08/23 01:49:22;;;;;;;;;;;;;;;22.36;57.80;101428.69;5046495;28;4173;-69
2023/08/23 01:51:48;;;;;;;;;;;;;;;22.35;57.62;101432.94;5028161;28;4267;-71
2023/08/23 01:54:16;;;;;;;;;;;;;;;22.36;57.45;101425.06;5042425;28;4131;-69
2023/08/23 01:56:43;;;;;;;;;;;;;;;22.34;57.54;101422.06;5028121;28;4157;-69
2023/08/23 01:59:09;;;;;;;;;;;;;;;22.32;57.42;101428.47;5023907;28;4444;-69
2023/08/23 02:01:36;;;;;;;;;;;;;;;22.32;57.49;101430.63;5023971;28;4143;-69
2023/08/23 02:04:03;;;;;;;;;;;;;;;22.32;57.80;101424.84;5027366;28;4333;-69
2023/08/23 02:06:29;;;;;;;;;;;;;;;22.32;57.43;101424.84;5027466;28;4041;-69
2023/08/23 02:08:56;;;;;;;;;;;;;;;22.29;57.45;101429.78;5025581;28;4067;-69
2023/08/23 02:11:22;;;;;;;;;;;;;;;22.30;57.80;101427.63;5042102;28;4038;-69
2023/08/23 02:13:49;;;;;;;;;;;;;;;22.30;57.62;101424.75;5027374;28;4120;-69
2023/08/23 02:16:15;;;;;;;;;;;;;;;22.30;57.38;101422.59;5028149;28;4081;-70
2023/08/23 02:18:42;;;;;;;;;;;;;;;22.28;57.68;101418.88;5028712;28;4288;-69
2023/08/23 02:21:08;;;;;;;;;;;;;;;22.28;57.88;101424.66;5026165;28;4047;-69
2023/08/23 02:23:34;;;;;;;;;;;;;;;22.29;57.72;101420.38;5030538;28;4059;-70
2023/08/23 02:26:01;;;;;;;;;;;;;;;22.29;57.58;101414.63;5039431;28;4269;-69
2023/08/23 02:28:27;;;;;;;;;;;;;;;22.28;57.40;101424.66;5042154;28;4515;-69
2023/08/23 02:31:00;;;;;;;;;;;;;;;22.26;57.67;101422.41;5026340;28;4071;-70
2023/08/23 02:33:28;;;;;;;;;;;;;;;22.25;57.69;101414.41;5029825;28;3961;-69
2023/08/23 02:35:54;;;;;;;;;;;;;;;22.24;57.41;101424.44;5027739;28;5301;-68
2023/08/23 02:38:20;;;;;;;;;;;;;;;22.22;57.74;101410.69;5043963;28;4441;-70
2023/08/23 02:40:47;;;;;;;;;;;;;;;22.23;57.41;101412.19;5031477;28;4130;-69
2023/08/23 02:43:13;;;;;;;;;;;;;;;22.22;57.52;101410.69;5025617;28;4118;-69
2023/08/23 02:45:40;;;;;;;;;;;;;;;22.22;57.19;101416.47;5028960;28;4163;-69
2023/08/23 02:48:09;;;;;;;;;;;;;;;22.21;57.25;101411.31;5027171;28;3997;-69
2023/08/23 02:50:36;;;;;;;;;;;;;;;22.22;57.40;101409.94;5026306;28;4252;-69
2023/08/23 02:53:02;;;;;;;;;;;;;;;22.21;57.24;101409.19;5025164;28;4089;-69
2023/08/23 02:55:29;;;;;;;;;;;;;;;22.22;57.43;101412.81;5027901;28;4103;-69
2023/08/23 02:57:55;;;;;;;;;;;;;;;22.18;57.29;101416.97;5027066;28;4196;-69
2023/08/23 03:00:21;;;;;;;;;;;;;;;22.20;57.50;101415.59;5025971;28;4027;-70
2023/08/23 03:02:50;;;;;;;;;;;;;;;22.20;57.54;101412.72;5024522;28;4032;-70
2023/08/23 03:05:17;;;;;;;;;;;;;;;22.19;57.19;101411.94;5023075;28;4555;-69
2023/08/23 03:07:43;;;;;;;;;;;;;;;22.19;57.39;101406.19;5026820;28;4185;-70
2023/08/23 03:10:10;;;;;;;;;;;;;;;22.17;57.37;101409.72;5037461;28;4202;-69
2023/08/23 03:12:37;;;;;;;;;;;;;;;22.16;57.20;101413.25;5024429;28;3975;-70
2023/08/23 03:15:03;;;;;;;;;;;;;;;22.15;57.29;101406.75;5025382;28;4108;-69
2023/08/23 03:17:29;;;;;;;;;;;;;;;22.14;57.20;101411.00;5025377;28;4312;-70
2023/08/23 03:19:57;;;;;;;;;;;;;;;22.12;57.21;101416.69;5025844;28;4182;-69
2023/08/23 03:22:24;;;;;;;;;;;;;;;22.14;57.29;101411.00;5026362;28;4106;-69
2023/08/23 03:24:51;;;;;;;;;;;;;;;22.14;57.10;101411.00;5025565;28;4089;-70
2023/08/23 03:27:18;;;;;;;;;;;;;;;22.13;57.06;101409.53;5023652;28;4140;-70
2023/08/23 03:29:46;;;;;;;;;;;;;;;22.14;57.00;101408.13;5027776;28;4071;-69
2023/08/23 03:32:16;;;;;;;;;;;;;;;22.13;57.01;101405.91;5023998;28;4042;-69
2023/08/23 03:34:42;;;;;;;;;;;;;;;22.12;57.01;101408.03;5031523;28;4220;-69
2023/08/23 03:37:09;;;;;;;;;;;;;;;22.10;57.16;101413.69;5026225;28;4031;-70
2023/08/23 03:39:37;;;;;;;;;;;;;;;22.12;57.19;101422.44;5029161;28;3999;-70
2023/08/23 03:42:04;;;;;;;;;;;;;;;22.11;57.25;101409.44;5042956;28;4126;-70
2023/08/23 03:44:30;;;;;;;;;;;;;;;22.10;57.39;101425.22;5040015;28;4017;-70
2023/08/23 03:46:57;;;;;;;;;;;;;;;22.10;57.25;101425.22;5027333;28;3978;-69
2023/08/23 03:49:23;;;;;;;;;;;;;;;22.10;57.36;101419.47;5025261;28;4103;-69
2023/08/23 03:51:52;;;;;;;;;;;;;;;22.09;57.25;101423.00;5038718;28;4066;-69
2023/08/23 03:54:20;;;;;;;;;;;;;;;22.09;57.11;101417.97;5028520;28;5409;-69
2023/08/23 03:56:46;;;;;;;;;;;;;;;22.08;57.18;101425.16;5024776;28;4808;-70
2023/08/23 03:59:12;;;;;;;;;;;;;;;22.06;57.44;101415.63;5043063;28;4109;-69
2023/08/23 04:01:39;;;;;;;;;;;;;;;22.05;57.29;101414.91;5026939;28;4151;-69
2023/08/23 04:04:05;;;;;;;;;;;;;;;21.99;57.11;101405.19;5039379;28;4166;-69
2023/08/23 04:06:32;;;;;;;;;;;;;;;20.91;59.04;101412.75;5040057;28;4043;-71
2023/08/23 04:08:59;;;;;;;;;;;;;;;20.73;59.24;101418.31;5038900;28;4202;-71
2023/08/23 04:11:25;;;;;;;;;;;;;;;20.46;59.69;101413.97;5025915;28;4369;-71
2023/08/23 04:13:52;;;;;;;;;;;;;;;20.27;60.45;101414.31;5024070;28;4145;-71
2023/08/23 04:16:18;;;;;;;;;;;;;;;20.16;60.47;101420.88;5028580;28;4078;-71
2023/08/23 04:18:44;;;;;;;;;;;;;;;20.07;60.85;101426.19;5041768;28;4173;-71
2023/08/23 04:21:11;;;;;;;;;;;;;;;20.01;60.96;101417.22;5026643;28;4392;-71
2023/08/23 04:23:37;;;;;;;;;;;;;;;19.91;61.45;101425.28;5025692;28;4410;-70
2023/08/23 04:26:04;;;;;;;;;;;;;;;19.83;61.66;101428.41;5020960;28;4116;-71
2023/08/23 04:28:30;;;;;;;;;;;;;;;19.87;61.70;101425.78;5043547;28;7150;-71
2023/08/23 04:31:00;;;;;;;;;;;;;;;19.82;61.83;101429.06;5023828;28;4063;-71
2023/08/23 04:33:34;;;;;;;;;;;;;;;19.73;62.43;101421.34;5040375;28;4712;-71
2023/08/23 04:36:02;;;;;;;;;;;;;;;19.75;62.37;101412.84;5048862;28;4148;-71
2023/08/23 04:38:28;;;;;;;;;;;;;;;19.34;63.71;101410.44;5026371;28;4149;-64
2023/08/23 04:41:04;;;;;;;;;;;;;;;18.99;64.99;101425.59;5037777;28;4181;-68
2023/08/23 04:43:32;;;;;;;;;;;;;;;19.19;64.76;101421.06;5039062;28;4036;-66
2023/08/23 04:46:01;;;;;;;;;;;;;;;19.31;64.39;101426.03;5041249;28;4554;-71
2023/08/23 04:48:28;;;;;;;;;;;;;;;19.52;64.01;101425.88;5028937;28;4258;-71
2023/08/23 04:50:55;;;;;;;;;;;;;;;19.59;63.93;101419.13;5048905;28;4315;-70
2023/08/23 04:53:22;;;;;;;;;;;;;;;19.64;63.91;101420.84;5031177;28;4139;-72
2023/08/23 04:55:48;;;;;;;;;;;;;;;19.66;64.03;101423.84;5030050;28;3904;-71
2023/08/23 04:58:15;;;;;;;;;;;;;;;19.66;64.46;101423.84;5028404;28;4124;-71
2023/08/23 05:00:45;;;;;;;;;;;;;;;19.72;65.18;101425.59;5013195;28;4205;-72
2023/08/23 05:03:12;;;;;;;;;;;;;;;19.66;65.56;101423.84;5047992;28;4177;-72
2023/08/23 05:05:40;;;;;;;;;;;;;;;19.69;65.64;101426.84;5042510;28;4117;-70
2023/08/23 05:08:06;;;;;;;;;;;;;;;19.67;66.02;101425.31;5027840;28;4033;-71
2023/08/23 05:10:33;;;;;;;;;;;;;;;19.66;66.47;101423.09;5047987;28;3921;-71
2023/08/23 05:12:59;;;;;;;;;;;;;;;19.66;66.86;101417.34;5042439;28;4092;-70
2023/08/23 05:15:26;;;;;;;;;;;;;;;19.73;67.40;101416.34;5026120;28;4207;-72
2023/08/23 05:17:53;;;;;;;;;;;;;;;19.79;67.65;101433.19;5033545;28;4080;-70
2023/08/23 05:20:19;;;;;;;;;;;;;;;19.84;68.19;101427.03;5047199;28;4090;-71
2023/08/23 05:22:46;;;;;;;;;;;;;;;19.83;68.65;101427.66;5047892;28;4022;-72
2023/08/23 05:25:13;;;;;;;;;;;;;;;19.83;69.13;101425.53;5030827;28;4119;-71
2023/08/23 05:27:39;;;;;;;;;;;;;;;19.88;69.20;101429.38;5031724;28;4402;-71
2023/08/23 05:30:06;;;;;;;;;;;;;;;19.90;69.69;101435.25;5030526;28;4098;-71
2023/08/23 05:32:34;;;;;;;;;;;;;;;19.92;70.08;101437.50;5028845;28;4392;-71
2023/08/23 05:35:03;;;;;;;;;;;;;;;19.98;70.21;101432.84;5046617;28;5333;-71
2023/08/23 05:37:29;;;;;;;;;;;;;;;20.07;70.03;101431.94;5046117;28;4180;-71
2023/08/23 05:39:56;;;;;;;;;;;;;;;20.14;69.79;101440.91;5043086;28;4543;-71
2023/08/23 05:42:23;;;;;;;;;;;;;;;20.13;69.84;101433.66;5031138;28;4100;-67
2023/08/23 05:44:50;;;;;;;;;;;;;;;20.19;70.25;101439.75;5043569;28;3925;-75
2023/08/23 05:47:16;;;;;;;;;;;;;;;20.17;70.14;101440.38;5027048;28;4276;-75
2023/08/23 05:49:43;;;;;;;;;;;;;;;20.26;70.23;101435.84;5028199;28;4220;-75
2023/08/23 05:52:09;;;;;;;;;;;;;;;20.29;70.12;101440.31;5044690;28;4532;-75
2023/08/23 05:54:36;;;;;;;;;;;;;;;20.36;70.05;101430.63;5035496;28;4548;-75
2023/08/23 05:57:02;;;;;;;;;;;;;;;20.40;69.88;101428.00;5028506;28;4189;-74
2023/08/23 05:59:28;;;;;;;;;;;;;;;20.45;69.78;101428.97;5028425;28;4203;-75
2023/08/23 06:01:55;;;;;;;;;;;;;;;20.43;69.96;101432.50;5031639;28;4177;-75
2023/08/23 06:04:21;;;;;;;;;;;;;;;20.46;69.96;101431.22;5027335;28;4069;-75
2023/08/23 06:06:48;;;;;;;;;;;;;;;20.51;69.45;101432.94;5030967;28;4019;-75
2023/08/23 06:09:16;;;;;;;;;;;;;;;20.51;69.26;101437.94;5027527;28;4205;-74
2023/08/23 06:11:43;;;;;;;;;;;;;;;20.58;69.09;101434.03;5031266;28;4147;-74
2023/08/23 06:14:19;;;;;;;;;;;;;;;20.62;69.30;101427.78;5029356;28;4142;-75
2023/08/23 06:16:46;;;;;;;;;;;;;;;20.57;68.80;101426.81;5032079;28;4110;-75
2023/08/23 06:19:12;;;;;;;;;;;;;;;20.66;68.82;101419.34;5026919;28;3924;-74
2023/08/23 06:21:42;;;;;;;;;;;;;;;20.70;68.61;101426.06;5034937;28;4265;-74
2023/08/23 06:24:09;;;;;;;;;;;;;;;20.73;68.78;101438.44;5032623;28;4655;-74
2023/08/23 06:26:35;;;;;;;;;;;;;;;20.78;68.77;101443.03;5030427;28;4480;-75
2023/08/23 06:29:01;;;;;;;;;;;;;;;20.76;68.87;101437.16;5026046;28;4118;-77
2023/08/23 06:31:28;;;;;;;;;;;;;;;20.77;68.69;101440.78;5028025;28;3983;-77
2023/08/23 06:33:54;;;;;;;;;;;;;;;20.83;68.29;101444.00;5027122;28;4088;-73
2023/08/23 06:36:21;;;;;;;;;;;;;;;20.90;68.31;101449.44;5025228;28;4494;-68
2023/08/23 06:38:47;;;;;;;;;;;;;;;20.99;67.88;101447.00;5029083;28;4148;-68
2023/08/23 06:41:13;;;;;;;;;;;;;;;20.99;67.99;101449.88;5030098;28;4363;-68
2023/08/23 06:43:41;;;;;;;;;;;;;;;21.00;67.80;101445.59;5031000;28;4113;-68
2023/08/23 06:46:07;;;;;;;;;;;;;;;21.05;67.46;101447.31;5029951;28;4161;-68
2023/08/23 06:48:33;;;;;;;;;;;;;;;21.11;67.45;101444.75;5031175;28;3901;-68
2023/08/23 06:51:03;;;;;;;;;;;;;;;21.11;67.26;101444.75;5027303;28;4195;-68
2023/08/23 06:53:29;;;;;;;;;;;;;;;21.11;67.25;101450.50;5028202;28;3981;-68
2023/08/23 06:55:56;;;;;;;;;;;;;;;21.16;67.42;101448.59;5027528;28;4290;-69
2023/08/23 06:58:22;;;;;;;;;;;;;;;20.55;70.39;101448.91;5024416;28;4129;-72
2023/08/23 07:00:48;;;;;;;;;;;;;;;20.59;70.24;101444.19;5027596;28;4320;-74
2023/08/23 07:03:15;;;;;;;;;;;;;;;20.62;70.80;101447.91;5030461;28;4178;-75
2023/08/23 07:05:42;;;;;;;;;;;;;;;20.91;69.64;101439.44;5025913;28;4051;-74
2023/08/23 07:08:08;;;;;;;;;;;;;;;20.92;69.71;101448.81;5030427;28;3984;-75
2023/08/23 07:10:35;;;;;;;;;;;;;;;20.85;70.35;101447.72;5027359;28;4155;-79
2023/08/23 07:13:01;;;;;;;;;;;;;;;21.00;69.62;101445.59;5027869;28;4206;-74
2023/08/23 07:15:28;;;;;;;;;;;;;;;21.18;69.09;101449.44;5024576;28;4184;-72
2023/08/23 07:17:55;;;;;;;;;;;;;;;21.32;68.46;101447.28;5027333;28;4111;-69
2023/08/23 07:20:21;;;;;;;;;;;;;;;21.38;67.92;101451.91;5024781;28;3939;-72
2023/08/23 07:22:47;;;;;;;;;;;;;;;21.38;68.62;101446.13;5025902;28;4406;-72
2023/08/23 07:25:14;;;;;;;;;;;;;;;21.29;69.00;101453.59;5026191;28;4355;-72
2023/08/23 07:27:40;;;;;;;;;;;;;;;21.45;68.26;101453.72;5027834;28;4102;-72
2023/08/23 07:30:07;;;;;;;;;;;;;;;21.46;68.24;101455.22;5026169;28;4039;-72
2023/08/23 07:32:33;;;;;;;;;;;;;;;21.43;68.95;101456.50;5026536;28;4087;-73
2023/08/23 07:35:00;;;;;;;;;;;;;;;21.43;68.94;101456.50;5028452;28;4143;-72
2023/08/23 07:37:27;;;;;;;;;;;;;;;21.31;69.43;101457.34;5025141;28;4274;-72
2023/08/23 07:39:53;;;;;;;;;;;;;;;21.19;69.95;101462.47;5024808;28;4004;-72
2023/08/23 07:42:20;;;;;;;;;;;;;;;21.37;69.17;101459.03;5027659;28;4153;-72
2023/08/23 07:44:46;;;;;;;;;;;;;;;21.30;69.49;101461.63;5026172;28;4178;-72
2023/08/23 07:47:13;;;;;;;;;;;;;;;21.56;67.87;101458.63;5025711;28;3978;-71
2023/08/23 07:49:39;;;;;;;;;;;;;;;21.74;67.28;101467.47;5027334;28;4104;-72
2023/08/23 07:52:06;;;;;;;;;;;;;;;21.77;67.10;101465.41;5024919;28;4101;-73
2023/08/23 07:54:32;;;;;;;;;;;;;;;21.69;67.52;101466.50;5028621;28;4276;-72
2023/08/23 07:56:58;;;;;;;;;;;;;;;21.64;67.20;101467.66;5024205;28;4141;-72
2023/08/23 07:59:25;;;;;;;;;;;;;;;21.75;67.23;101472.56;5026818;28;4012;-72
2023/08/23 08:01:51;;;;;;;;;;;;;;;21.87;66.75;101468.78;5028762;28;4316;-72
2023/08/23 08:04:18;;;;;;;;;;;;;;;21.95;66.55;101469.22;5031210;28;4192;-73
2023/08/23 08:06:44;;;;;;;;;;;;;;;21.79;67.49;101471.28;5027941;28;4217;-73
2023/08/23 08:09:11;;;;;;;;;;;;;;;21.90;67.23;101467.53;5027058;28;4332;-72
2023/08/23 08:11:37;;;;;;;;;;;;;;;22.00;66.90;101459.38;5033058;28;4004;-73
2023/08/23 08:14:03;;;;;;;;;;;;;;;22.07;66.54;101466.91;5030910;28;4600;-72
2023/08/23 08:16:30;;;;;;;;;;;;;;;22.10;66.21;101464.88;5034977;28;4157;-72
2023/08/23 08:18:56;;;;;;;;;;;;;;;21.99;66.60;101472.28;5027976;28;4080;-72
2023/08/23 08:21:23;;;;;;;;;;;;;;;21.93;66.70;101466.97;5028673;28;4198;-73
2023/08/23 08:23:50;;;;;;;;;;;;;;;22.03;66.74;101475.38;5029655;28;4189;-72
2023/08/23 08:26:16;;;;;;;;;;;;;;;22.15;66.12;101469.44;5032411;28;5006;-72
2023/08/23 08:28:44;;;;;;;;;;;;;;;22.20;66.15;101476.19;5028252;28;3981;-73
2023/08/23 08:31:10;;;;;;;;;;;;;;;22.22;65.82;101479.16;5029134;28;4115;-73
2023/08/23 08:33:37;;;;;;;;;;;;;;;22.25;65.83;101477.88;5028158;28;4155;-72
2023/08/23 08:36:04;;;;;;;;;;;;;;;22.31;65.74;101481.81;5024483;28;4238;-72
2023/08/23 08:38:30;;;;;;;;;;;;;;;22.25;65.83;101475.00;5027134;28;4470;-73
2023/08/23 08:40:56;;;;;;;;;;;;;;;22.31;65.58;101469.50;5026740;28;4115;-72
2023/08/23 08:43:23;;;;;;;;;;;;;;;22.34;65.87;101474.00;5025729;28;4027;-72
2023/08/23 08:45:49;;;;;;;;;;;;;;;22.37;65.53;101478.47;5031465;28;4218;-72
2023/08/23 08:48:16;;;;;;;;;;;;;;;22.47;64.42;101469.53;5026458;28;4012;-72
2023/08/23 08:50:43;;;;;;;;;;;;;;;22.44;64.58;101474.47;5025660;28;4175;-74
2023/08/23 08:53:11;;;;;;;;;;;;;;;22.41;64.82;101478.66;5024596;28;4163;-73
2023/08/23 08:55:37;;;;;;;;;;;;;;;22.34;64.95;101476.88;5021999;28;4105;-72
2023/08/23 08:58:04;;;;;;;;;;;;;;;22.33;64.64;101481.16;5023971;28;4168;-73
2023/08/23 09:00:30;;;;;;;;;;;;;;;22.29;64.84;101484.59;5043181;28;4099;-73
2023/08/23 09:02:57;;;;;;;;;;;;;;;22.25;64.62;101483.66;5026355;28;4114;-73
2023/08/23 09:05:24;;;;;;;;;;;;;;;22.22;64.80;101484.94;5026267;28;4188;-73
2023/08/23 09:07:51;;;;;;;;;;;;;;;22.21;64.82;101480.53;5028557;28;4441;-73
2023/08/23 09:10:17;;;;;;;;;;;;;;;22.21;64.85;101477.66;5025184;28;4188;-73
2023/08/23 09:12:43;;;;;;;;;;;;;;;22.21;64.71;101477.66;5024973;28;4267;-73
2023/08/23 09:15:10;;;;;;;;;;;;;;;22.20;64.57;101474.03;5026833;28;4067;-73
2023/08/23 09:17:36;;;;;;;;;;;;;;;22.22;64.65;101484.94;5026916;28;4137;-73
2023/08/23 09:20:06;;;;;;;;;;;;;;;22.22;64.49;101473.41;5022231;28;4046;-74
2023/08/23 09:22:33;;;;;;;;;;;;;;;22.21;64.71;101477.66;5029430;28;4308;-73
2023/08/23 09:25:00;;;;;;;;;;;;;;;22.22;64.66;101482.06;5029663;28;4161;-72
2023/08/23 09:27:27;;;;;;;;;;;;;;;22.23;64.33;101480.66;5028142;28;4128;-73
2023/08/23 09:30:04;;;;;;;;;;;;;;;22.23;64.33;101480.66;5028363;28;4334;-74
2023/08/23 09:32:30;;;;;;;;;;;;;;;22.23;64.17;101486.44;5028921;28;4007;-74
2023/08/23 09:34:57;;;;;;;;;;;;;;;22.24;64.22;101487.91;5032378;28;4164;-74
2023/08/23 09:37:24;;;;;;;;;;;;;;;22.24;64.41;101487.91;5028292;28;4139;-73
2023/08/23 09:39:50;;;;;;;;;;;;;;;22.25;64.07;101484.41;5042795;28;4121;-74
2023/08/23 09:42:17;;;;;;;;;;;;;;;22.25;64.29;101472.84;5030963;28;4080;-74
2023/08/23 09:44:46;;;;;;;;;;;;;;;22.26;64.17;101480.09;5025590;28;4334;-74
2023/08/23 09:47:14;;;;;;;;;;;;;;;22.24;64.24;101493.69;5025817;28;4250;-74
2023/08/23 09:49:41;;;;;;;;;;;;;;;22.29;64.15;101478.09;5032823;28;3990;-74
2023/08/23 09:52:08;;;;;;;;;;;;;;;22.32;64.00;101476.78;5028241;28;4220;-75
2023/08/23 09:54:54;;;;;;;;;;;;;;;22.27;64.02;101478.72;5026077;28;3999;-75
2023/08/23 09:57:40;;;;;;;;;;;;;;;22.33;63.90;101484.03;5029600;28;4484;-75
2023/08/23 10:00:07;;;;;;;;;;;;;;;22.32;64.09;101482.56;5040745;28;4179;-75
2023/08/23 10:02:33;;;;;;;;;;;;;;;22.32;63.78;101482.56;5027399;28;4292;-75
2023/08/23 10:05:01;;;;;;;;;;;;;;;22.30;64.05;101485.34;5024617;28;4156;-72
2023/08/23 10:07:27;;;;;;;;;;;;;;;22.31;63.86;101486.81;5031251;28;4047;-73
2023/08/23 10:09:53;;;;;;;;;;;;;;;22.31;63.97;101486.81;5026470;28;4233;-73
2023/08/23 10:12:20;;;;;;;;;;;;;;;22.31;63.87;101481.06;5025468;28;3929;-73
2023/08/23 10:14:46;;;;;;;;;;;;;;;22.32;63.77;101477.53;5043837;28;4084;-74
2023/08/23 10:17:13;;;;;;;;;;;;;;;22.33;63.72;101475.38;5029570;28;4434;-73
2023/08/23 10:19:40;;;;;;;;;;;;;;;22.32;63.88;101477.53;5042835;28;4121;-73
2023/08/23 10:22:07;;;;;;;;;;;;;;;22.32;63.60;101479.66;5029082;28;4137;-73
2023/08/23 10:24:33;;;;;;;;;;;;;;;22.34;63.83;101479.78;5033375;28;4198;-74
2023/08/23 10:27:06;;;;;;;;;;;;;;;22.32;63.55;101477.53;5026896;28;4304;-72
2023/08/23 10:29:34;;;;;;;;;;;;;;;22.34;63.63;101468.22;5027633;28;4392;-73
2023/08/23 10:32:18;;;;;;;;;;;;;;;22.35;63.55;101482.00;5028513;28;4143;-72
2023/08/23 10:34:45;;;;;;;;;;;;;;;22.35;63.66;101482.00;5028061;28;4116;-72
2023/08/23 10:37:15;;;;;;;;;;;;;;;22.36;63.75;101482.75;5029146;28;4873;-72
2023/08/23 10:39:45;;;;;;;;;;;;;;;22.36;63.45;101477.00;5028635;28;4105;-73
2023/08/23 10:42:11;;;;;;;;;;;;;;;22.37;63.36;101472.69;5026434;28;4498;-72
2023/08/23 10:44:44;;;;;;;;;;;;;;;22.36;63.50;101471.97;5030691;28;4183;-74
2023/08/23 10:47:10;;;;;;;;;;;;;;;22.36;63.35;101479.88;5027320;28;4088;-72
2023/08/23 10:49:37;;;;;;;;;;;;;;;22.38;63.53;101474.19;5027086;28;4114;-73
2023/08/23 10:52:03;;;;;;;;;;;;;;;22.39;63.32;101475.69;5041736;28;4092;-73
2023/08/23 10:54:30;;;;;;;;;;;;;;;22.40;63.60;101482.19;5028632;28;4071;-73
2023/08/23 10:56:56;;;;;;;;;;;;;;;22.41;63.28;101475.78;5027895;28;3969;-73
2023/08/23 10:59:22;;;;;;;;;;;;;;;22.40;63.60;101474.28;5028276;28;4064;-73
2023/08/23 11:01:49;;;;;;;;;;;;;;;22.42;63.54;101462.81;5027715;28;4108;-73
2023/08/23 11:04:15;;;;;;;;;;;;;;;22.41;63.31;101466.38;5026319;28;4075;-74
2023/08/23 11:06:42;;;;;;;;;;;;;;;22.42;63.33;101465.72;5048950;28;3986;-73
2023/08/23 11:09:08;;;;;;;;;;;;;;;22.43;63.26;101454.94;5027594;28;4230;-73
2023/08/23 11:11:35;;;;;;;;;;;;;;;22.42;63.24;101454.16;5027637;28;4154;-73
2023/08/23 11:14:03;;;;;;;;;;;;;;;22.44;63.22;101459.31;5028191;28;3970;-73
2023/08/23 11:16:29;;;;;;;;;;;;;;;22.44;63.22;101462.19;5026541;28;4136;-74
2023/08/23 11:18:56;;;;;;;;;;;;;;;22.44;63.33;101462.94;5030451;28;4267;-73
2023/08/23 11:21:22;;;;;;;;;;;;;;;22.45;63.29;101455.78;5027207;28;4165;-75
2023/08/23 11:23:48;;;;;;;;;;;;;;;22.44;63.53;101447.75;5029635;28;4083;-74
2023/08/23 11:26:15;;;;;;;;;;;;;;;22.49;63.07;101449.44;5024256;28;4201;-74
2023/08/23 11:28:41;;;;;;;;;;;;;;;22.47;63.11;101453.00;5027390;28;4193;-74
2023/08/23 11:31:08;;;;;;;;;;;;;;;22.47;63.50;101453.00;5025298;28;4265;-73
2023/08/23 11:33:35;;;;;;;;;;;;;;;22.51;63.07;101450.28;5034837;28;4036;-73
2023/08/23 11:36:03;;;;;;;;;;;;;;;22.51;63.44;101455.31;5026849;28;4083;-74
2023/08/23 11:38:30;;;;;;;;;;;;;;;22.48;63.29;101451.59;5029445;28;4212;-74
2023/08/23 11:40:56;;;;;;;;;;;;;;;22.50;63.50;101451.69;5029088;28;4005;-74
2023/08/23 11:43:26;;;;;;;;;;;;;;;22.52;63.51;101451.78;5029193;28;3877;-72
2023/08/23 11:45:53;;;;;;;;;;;;;;;22.54;63.23;101440.34;5028458;28;4171;-67
2023/08/23 11:48:23;;;;;;;;;;;;;;;22.55;63.21;101446.84;5024113;28;4021;-62
2023/08/23 11:50:50;;;;;;;;;;;;;;;22.56;63.05;101446.19;5025730;28;4168;-63
2023/08/23 11:53:16;;;;;;;;;;;;;;;22.56;63.29;101443.31;5042488;28;4057;-63
2023/08/23 11:55:43;;;;;;;;;;;;;;;22.57;63.21;101441.91;5043151;28;4029;-63
2023/08/23 11:58:12;;;;;;;;;;;;;;;22.57;63.20;101438.28;5029496;28;4219;-63
2023/08/23 12:00:38;;;;;;;;;;;;;;;22.58;63.20;101440.50;5026461;28;4012;-63
2023/08/23 12:03:05;;;;;;;;;;;;;;;22.60;62.93;101439.84;5027051;28;4119;-63
2023/08/23 12:05:31;;;;;;;;;;;;;;;22.61;62.64;101434.81;5032203;28;4253;-63
2023/08/23 12:07:58;;;;;;;;;;;;;;;22.62;62.84;101439.22;5029933;28;4017;-63
2023/08/23 12:10:25;;;;;;;;;;;;;;;22.62;62.47;101431.28;5030702;28;4181;-63
2023/08/23 12:12:52;;;;;;;;;;;;;;;22.65;62.58;101426.34;5029861;28;4117;-63
2023/08/23 12:15:19;;;;;;;;;;;;;;;22.65;62.59;101427.09;5033844;28;3995;-63
2023/08/23 12:17:45;;;;;;;;;;;;;;;22.68;62.58;101431.59;5028798;28;4087;-63
2023/08/23 12:20:12;;;;;;;;;;;;;;;22.68;62.41;101433.72;5027039;28;4109;-63
2023/08/23 12:22:50;;;;;;;;;;;;;;;22.69;62.46;101426.53;5029584;28;4161;-63
2023/08/23 12:25:16;;;;;;;;;;;;;;;22.69;62.47;101415.00;5030694;28;4128;-63
2023/08/23 12:27:42;;;;;;;;;;;;;;;22.68;62.44;101425.81;5032737;28;4857;-64
2023/08/23 12:30:09;;;;;;;;;;;;;;;22.70;62.37;101422.25;5025693;28;4232;-63
2023/08/23 12:32:35;;;;;;;;;;;;;;;22.71;62.47;101417.97;5026986;28;4398;-63
2023/08/23 12:35:04;;;;;;;;;;;;;;;22.72;62.22;101416.56;5028080;28;4132;-63
2023/08/23 12:37:30;;;;;;;;;;;;;;;22.74;62.49;101428.22;5027136;28;3951;-63
2023/08/23 12:39:57;;;;;;;;;;;;;;;22.73;62.38;101427.47;5026871;28;4156;-63
2023/08/23 12:42:23;;;;;;;;;;;;;;;22.75;62.42;101423.94;5026541;28;4122;-63
2023/08/23 12:44:50;;;;;;;;;;;;;;;22.75;62.37;101423.94;5028112;28;4017;-63
2023/08/23 12:47:16;;;;;;;;;;;;;;;22.72;62.58;101431.00;5029733;28;4117;-64